Zirfaea — PBZV — position and weather

sailwx.info

Track history (hours):
 
Tides and Currents Weather Stations Pressure Air Temp Water Temp Dewpoint Dewpoint Depression Visibility Wind Speed Wind Dir Waves Ship Positions

Oceanographic research ship Zirfaea (Netherlands)

Detailed information on ship capabilities available from University of Delaware's Ocean Information Center.

Last reported at 2019-Oct-17 18:59 UTC. Time now 2019-Oct-17 19:07 UTC.
Position N 52°06' E 004°16'.

Length 63 m; draft 3.9 m.

Type: Law enforcement. MMSI: 246096000.

Date/timePositionNaut miles runAvg speedWind from/ knotsBaromVisibWave heightAir tempDewpointWater temp
2019-Oct-17 18:59N 52°06' E 004°16'0 0.0
2019-Oct-17 18:29N 52°06' E 004°16'0 0.0
2019-Oct-17 17:59N 52°06' E 004°16'0 0.0
2019-Oct-17 17:29N 52°06' E 004°16'0 0.0
2019-Oct-17 16:59N 52°06' E 004°16'0 0.0
2019-Oct-17 16:29N 52°06' E 004°16'0 0.0
2019-Oct-17 15:59N 52°06' E 004°16'0 0.0
2019-Oct-17 15:29N 52°06' E 004°16'0 0.0
2019-Oct-17 14:59N 52°06' E 004°16'0 0.0
2019-Oct-17 14:29N 52°06' E 004°16'0 0.0
2019-Oct-17 13:59N 52°06' E 004°16'0 0.0
2019-Oct-17 13:29N 52°06' E 004°16'0 0.0
2019-Oct-17 12:59N 52°06' E 004°16'0 0.0
2019-Oct-17 12:29N 52°06' E 004°16'0 0.0
2019-Oct-17 11:59N 52°06' E 004°16'0 0.0
2019-Oct-17 11:29N 52°06' E 004°16'0 0.0
2019-Oct-17 10:59N 52°06' E 004°16'0 0.0
2019-Oct-17 10:29N 52°06' E 004°16'0 0.0
2019-Oct-17 09:59N 52°06' E 004°16'0 0.0
2019-Oct-17 09:29N 52°06' E 004°16'0 0.0
2019-Oct-17 08:59N 52°06' E 004°16'0 0.0
2019-Oct-17 08:29N 52°06' E 004°16'0 0.0
2019-Oct-17 07:59N 52°06' E 004°16'0 0.0
2019-Oct-17 07:29N 52°06' E 004°16'0 0.0
2019-Oct-17 06:59N 52°06' E 004°16'0 0.0
2019-Oct-17 06:29N 52°06' E 004°16'1 2.8
2019-Oct-17 06:00N 52°07' E 004°15'2 3.3
2019-Oct-17 05:30N 52°06' E 004°13'1 1.8
2019-Oct-17 05:00N 52°05' E 004°12'2 3.1
2019-Oct-17 04:30N 52°04' E 004°11'1 1.7
2019-Oct-17 04:00N 52°04' E 004°09'1 2.0
2019-Oct-17 03:30N 52°03' E 004°08'1 2.3
2019-Oct-17 03:00N 52°03' E 004°06'1 2.3
2019-Oct-17 02:30N 52°02' E 004°04'1 2.7
2019-Oct-17 02:00N 52°02' E 004°02'3 6.6
2019-Oct-17 01:30N 51°59' E 003°58'3 5.2
2019-Oct-17 01:00N 51°58' E 003°55'2 3.5
2019-Oct-17 00:30N 51°57' E 003°53'2 3.3
2019-Oct-17 00:00N 51°56' E 003°51'2 3.2
2019-Oct-16 23:30N 51°54' E 003°49'1 3.0
2019-Oct-16 23:00N 51°53' E 003°47'2 3.0
2019-Oct-16 22:30N 51°52' E 003°46'2 3.0
2019-Oct-16 22:00N 51°52' E 003°44'0 0.6
2019-Oct-16 21:30N 51°51' E 003°43'2 4.2
2019-Oct-16 21:00N 51°52' E 003°46'2 3.8
2019-Oct-16 20:30N 51°53' E 003°49'2 3.1
2019-Oct-16 20:00N 51°54' E 003°51'1 2.7
2019-Oct-16 19:30N 51°55' E 003°53'1 1.8
2019-Oct-16 19:00N 51°54' E 003°53'2 3.1
2019-Oct-16 18:30N 51°52' E 003°52'2 3.8
2019-Oct-16 18:00N 51°51' E 003°50'4 6.5
2019-Oct-16 17:28N 51°50' E 003°45'36 3.3
2019-Oct-16 06:23N 52°16' E 003°04'73 8.2
2019-Oct-15 21:26N 53°06' E 004°32'4 7.7
2019-Oct-15 20:57N 53°09' E 004°37'16 8.1
2019-Oct-15 18:59N 53°22' E 004°53'4 7.6
2019-Oct-15 18:30N 53°24' E 004°57'4 7.2
2019-Oct-15 18:00N 53°26' E 005°02'3 5.5
2019-Oct-15 17:30N 53°28' E 005°06'55 3.0
2019-Oct-14 22:57N 53°09' E 003°39'4 8.0
2019-Oct-14 22:27N 53°05' E 003°38'6 7.7
2019-Oct-14 21:44N 53°00' E 003°36'12 7.6
2019-Oct-14 20:12N 52°49' E 003°32'5 7.7
2019-Oct-14 19:33N 52°44' E 003°31'7 7.6
2019-Oct-14 18:39N 52°37' E 003°34'3 7.9
2019-Oct-14 18:14N 52°34' E 003°32'1 1.8
2019-Oct-14 17:57N 52°34' E 003°33'5 9.3
2019-Oct-14 17:26N 52°32' E 003°40'4 9.3
2019-Oct-14 16:59N 52°30' E 003°45'4 9.4
2019-Oct-14 16:30N 52°27' E 003°51'4 8.9
2019-Oct-14 16:01N 52°25' E 003°58'5 9.1
2019-Oct-14 15:30N 52°23' E 004°05'4 8.6
2019-Oct-14 15:00N 52°21' E 004°10'3 5.1
2019-Oct-14 14:30N 52°19' E 004°14'3 6.0
2019-Oct-14 14:00N 52°18' E 004°18'4 7.1
2019-Oct-14 13:30N 52°16' E 004°23'1 1.4
2019-Oct-14 13:01N 52°16' E 004°24'2 3.7
2019-Oct-14 12:30N 52°14' E 004°22'4 8.8
2019-Oct-14 12:01N 52°11' E 004°18'4 8.2
2019-Oct-14 11:31N 52°07' E 004°15'1 2.2
2019-Oct-14 10:59N 52°06' E 004°16'0 0.0
2019-Oct-14 10:29N 52°06' E 004°16'0 0.0
2019-Oct-14 09:59N 52°06' E 004°16'0 0.0
2019-Oct-14 09:29N 52°06' E 004°16'0 0.0
2019-Oct-14 08:59N 52°06' E 004°16'0 0.0
2019-Oct-14 08:23N 52°06' E 004°16'0 0.0
2019-Oct-14 07:59N 52°06' E 004°16'0 0.0
2019-Oct-14 07:29N 52°06' E 004°16'0 0.0
2019-Oct-14 06:59N 52°06' E 004°16'0 0.0
2019-Oct-14 06:29N 52°06' E 004°16'0 0.0
2019-Oct-14 05:59N 52°06' E 004°16'0 0.0
2019-Oct-14 05:29N 52°06' E 004°16'0 0.0
2019-Oct-14 04:59N 52°06' E 004°16'0 0.0
2019-Oct-14 04:29N 52°06' E 004°16'0 0.0
2019-Oct-14 03:59N 52°06' E 004°16'0 0.0
2019-Oct-14 03:29N 52°06' E 004°16'0 0.0
2019-Oct-14 02:59N 52°06' E 004°16'0 0.0
2019-Oct-14 02:29N 52°06' E 004°16'0 0.0
2019-Oct-14 01:59N 52°06' E 004°16'0 0.0
2019-Oct-14 01:29N 52°06' E 004°16'0 0.0
2019-Oct-14 00:53N 52°06' E 004°16'0 0.0
2019-Oct-14 00:29N 52°06' E 004°16'0 0.0
2019-Oct-13 23:59N 52°06' E 004°16'0 0.0
2019-Oct-13 23:29N 52°06' E 004°16'0 0.0
2019-Oct-13 22:56N 52°06' E 004°16'0 0.0
2019-Oct-13 22:23N 52°06' E 004°16'0 0.0
2019-Oct-13 21:59N 52°06' E 004°16'0 0.0
2019-Oct-13 21:29N 52°06' E 004°16'0 0.0
2019-Oct-13 20:59N 52°06' E 004°16'0 0.0
2019-Oct-13 20:26N 52°06' E 004°16'0 0.0
2019-Oct-13 19:59N 52°06' E 004°16'0 0.0
2019-Oct-13 19:29N 52°06' E 004°16'0 0.0
2019-Oct-13 18:59N 52°06' E 004°16'0 0.0
2019-Oct-13 18:26N 52°06' E 004°16'0 0.0
2019-Oct-13 17:59N 52°06' E 004°16'0 0.0
2019-Oct-13 17:29N 52°06' E 004°16'0 0.0
2019-Oct-13 16:59N 52°06' E 004°16'0 0.0
2019-Oct-13 16:29N 52°06' E 004°16'0 0.0
2019-Oct-13 15:59N 52°06' E 004°16'0 0.0
2019-Oct-13 15:29N 52°06' E 004°16'0 0.0
2019-Oct-13 14:56N 52°06' E 004°16'0 0.0
2019-Oct-13 14:29N 52°06' E 004°16'2 3.7
2019-Oct-13 14:01N 52°08' E 004°15'4 7.1
2019-Oct-13 13:30N 52°11' E 004°16'4 7.5
2019-Oct-13 13:00N 52°15' E 004°18'4 8.3
2019-Oct-13 12:30N 52°19' E 004°20'5 9.1
2019-Oct-13 12:00N 52°23' E 004°23'5 9.5
2019-Oct-13 11:30N 52°27' E 004°26'5 9.5
2019-Oct-13 11:01N 52°32' E 004°28'5 9.8
2019-Oct-13 10:30N 52°37' E 004°29'5 9.8
2019-Oct-13 10:00N 52°41' E 004°28'5 9.5
2019-Oct-13 09:31N 52°46' E 004°29'8 4.2
2019-Oct-13 07:40N 52°54' E 004°30'1 0.6
2019-Oct-13 05:50N 52°55' E 004°30'1 3.5
2019-Oct-13 05:27N 52°55' E 004°32'29 4.8
2019-Oct-12 23:20N 53°21' E 004°54'3 6.2
2019-Oct-12 22:52N 53°23' E 004°58'2 6.4
2019-Oct-12 22:30N 53°25' E 005°01'3 6.1
2019-Oct-12 22:00N 53°26' E 005°05'3 5.9
2019-Oct-12 21:30N 53°27' E 005°10'3 5.6
2019-Oct-12 21:00N 53°28' E 005°15'3 5.1
2019-Oct-12 20:31N 53°28' E 005°19'2 4.5
2019-Oct-12 20:00N 53°29' E 005°22'2 4.3
2019-Oct-12 19:29N 53°30' E 005°26'2 3.9
2019-Oct-12 19:00N 53°31' E 005°29'5 3.7
2019-Oct-12 17:33N 53°32' E 005°37'0 3.4
2019-Oct-12 17:30N 53°32' E 005°37'3 3.4
2019-Oct-12 16:32N 53°33' E 005°43'0 3.5
2019-Oct-12 16:30N 53°33' E 005°43'1 1.4
2019-Oct-12 15:50N 53°33' E 005°44'0 1.2
2019-Oct-12 15:30N 53°33' E 005°45'0 0.4
2019-Oct-12 14:58N 53°33' E 005°45'0 0.7
2019-Oct-12 14:29N 53°33' E 005°45'0 0.6
2019-Oct-12 14:00N 53°33' E 005°45'0 0.7
2019-Oct-12 13:31N 53°33' E 005°45'0 0.1
2019-Oct-12 13:00N 53°33' E 005°45'0 0.3
2019-Oct-12 12:30N 53°34' E 005°45'0 0.7
2019-Oct-12 12:00N 53°33' E 005°45'37 7.3
2019-Oct-12 06:58N 53°31' E 006°47'3 6.9
2019-Oct-12 06:30N 53°28' E 006°50'1 1.6
2019-Oct-12 05:37N 53°27' E 006°50'0 0.0
2019-Oct-12 05:13N 53°27' E 006°50'0 0.0
2019-Oct-12 04:55N 53°27' E 006°50'0 0.0
2019-Oct-12 04:13N 53°27' E 006°50'0 0.0
2019-Oct-12 03:55N 53°27' E 006°50'0 0.0
2019-Oct-12 03:22N 53°27' E 006°50'0 0.0
2019-Oct-12 02:55N 53°27' E 006°50'0 0.0
2019-Oct-12 01:19N 53°27' E 006°50'0 0.0
2019-Oct-12 00:55N 53°27' E 006°50'0 0.0
2019-Oct-12 00:28N 53°27' E 006°50'0 0.0
2019-Oct-11 23:46N 53°27' E 006°50'0 0.0
2019-Oct-11 23:04N 53°27' E 006°50'0 0.0
2019-Oct-11 20:34N 53°27' E 006°50'0 0.0
2019-Oct-11 19:28N 53°27' E 006°50'0 0.0
2019-Oct-11 18:46N 53°27' E 006°50'0 0.0
2019-Oct-11 18:16N 53°27' E 006°50'0 0.0
2019-Oct-11 17:22N 53°27' E 006°50'0 0.0
2019-Oct-11 16:55N 53°27' E 006°50'0 0.0
2019-Oct-11 16:04N 53°27' E 006°50'0 0.0
2019-Oct-11 13:10N 53°27' E 006°50'0 0.0
2019-Oct-11 12:52N 53°27' E 006°50'0 0.0
2019-Oct-11 11:52N 53°27' E 006°50'0 0.0
2019-Oct-11 11:16N 53°27' E 006°50'0 0.0
2019-Oct-11 04:58N 53°27' E 006°50'0 0.0
2019-Oct-11 03:22N 53°27' E 006°50'0 0.0
2019-Oct-11 02:07N 53°27' E 006°50'0 0.0
2019-Oct-11 01:52N 53°27' E 006°50'0 0.0
2019-Oct-11 00:55N 53°27' E 006°50'0 0.0
2019-Oct-11 00:22N 53°27' E 006°50'0 0.0
2019-Oct-10 23:31N 53°27' E 006°50'0 0.0
2019-Oct-10 23:16N 53°27' E 006°50'0 0.0
2019-Oct-10 22:52N 53°27' E 006°50'0 0.0
2019-Oct-10 16:13N 53°27' E 006°50'0 0.0
2019-Oct-10 13:43N 53°27' E 006°50'0 0.0
2019-Oct-10 13:13N 53°27' E 006°50'0 0.0
2019-Oct-10 11:55N 53°27' E 006°50'0 0.0
2019-Oct-10 11:19N 53°27' E 006°50'0 0.0
2019-Oct-10 06:16N 53°27' E 006°50'0 0.0
2019-Oct-10 05:58N 53°27' E 006°50'0 0.0
2019-Oct-10 05:28N 53°27' E 006°50'0 0.0
2019-Oct-10 04:58N 53°27' E 006°50'0 0.0
2019-Oct-10 04:10N 53°27' E 006°50'0 0.0
2019-Oct-10 03:55N 53°27' E 006°50'0 0.0
2019-Oct-10 03:28N 53°27' E 006°50'0 0.0
2019-Oct-10 02:37N 53°27' E 006°50'0 0.0
2019-Oct-10 01:52N 53°27' E 006°50'0 0.0
2019-Oct-10 01:28N 53°27' E 006°50'0 0.0
2019-Oct-10 00:46N 53°27' E 006°50'0 0.0
2019-Oct-09 23:58N 53°27' E 006°50'0 0.0
2019-Oct-09 23:04N 53°27' E 006°50'0 0.2
2019-Oct-09 22:52N 53°27' E 006°50'0 0.0
2019-Oct-09 22:28N 53°27' E 006°50'0 0.0
2019-Oct-09 21:52N 53°27' E 006°50'0 0.0
2019-Oct-09 21:28N 53°27' E 006°50'0 0.0
2019-Oct-09 19:43N 53°27' E 006°50'0 0.0
2019-Oct-09 18:49N 53°27' E 006°50'0 0.0
2019-Oct-09 18:30N 53°27' E 006°50'1 2.8
2019-Oct-09 18:00N 53°28' E 006°50'0 1.0
2019-Oct-09 17:30N 53°29' E 006°50'1 1.7
2019-Oct-09 17:00N 53°29' E 006°49'1 2.1
2019-Oct-09 16:30N 53°30' E 006°48'2 3.7
2019-Oct-09 15:59N 53°31' E 006°46'2 2.8
2019-Oct-09 15:25N 53°32' E 006°43'2 1.0
2019-Oct-09 13:29N 53°31' E 006°46'3 7.3
2019-Oct-09 13:00N 53°29' E 006°50'0 0.5
2019-Oct-09 12:30N 53°28' E 006°50'0 0.7
2019-Oct-09 11:55N 53°28' E 006°50'0 0.5
2019-Oct-09 11:29N 53°28' E 006°50'1 0.7
2019-Oct-09 10:27N 53°27' E 006°49'0 0.0
2019-Oct-09 09:03N 53°27' E 006°49'0 0.0
2019-Oct-09 06:36N 53°27' E 006°49'0 0.0
2019-Oct-09 06:24N 53°27' E 006°49'0 0.0
2019-Oct-09 05:45N 53°27' E 006°49'0 0.0
2019-Oct-09 05:30N 53°27' E 006°49'0 0.0
2019-Oct-09 04:48N 53°27' E 006°49'0 0.0
2019-Oct-09 04:15N 53°27' E 006°49'0 0.0
2019-Oct-09 03:51N 53°27' E 006°49'0 0.0
2019-Oct-09 03:30N 53°27' E 006°49'0 0.0
2019-Oct-09 02:57N 53°27' E 006°49'0 0.0
2019-Oct-09 02:12N 53°27' E 006°49'0 0.0
2019-Oct-09 01:42N 53°27' E 006°49'0 0.0
2019-Oct-09 01:21N 53°27' E 006°49'0 0.0
2019-Oct-09 00:51N 53°27' E 006°49'0 0.0
2019-Oct-09 00:18N 53°27' E 006°49'0 0.0
2019-Oct-08 23:57N 53°27' E 006°49'0 0.0
2019-Oct-08 23:06N 53°27' E 006°49'0 0.0
2019-Oct-08 22:57N 53°27' E 006°49'0 0.0
2019-Oct-08 22:30N 53°27' E 006°49'0 0.0
2019-Oct-08 21:45N 53°27' E 006°49'0 0.0
2019-Oct-08 21:30N 53°27' E 006°49'0 0.0
2019-Oct-08 21:00N 53°27' E 006°49'0 0.0
2019-Oct-08 20:18N 53°27' E 006°49'0 0.0
2019-Oct-08 19:54N 53°27' E 006°49'0 0.0
2019-Oct-08 19:06N 53°27' E 006°49'0 0.0
2019-Oct-08 18:48N 53°27' E 006°49'0 0.0
2019-Oct-08 18:24N 53°27' E 006°49'0 0.0
2019-Oct-08 18:00N 53°27' E 006°49'1 1.1
2019-Oct-08 17:31N 53°27' E 006°50'2 3.4
2019-Oct-08 17:00N 53°29' E 006°50'1 1.6
2019-Oct-08 16:30N 53°30' E 006°49'1 1.6
2019-Oct-08 15:58N 53°30' E 006°48'3 1.8
2019-Oct-08 14:24N 53°32' E 006°44'28 2.6
2019-Oct-08 03:50N 53°34' E 005°58'3 8.4
2019-Oct-08 03:30N 53°34' E 005°53'4 8.4
2019-Oct-08 03:00N 53°33' E 005°46'4 8.5
2019-Oct-08 02:29N 53°32' E 005°39'4 8.7
2019-Oct-08 02:00N 53°31' E 005°32'4 8.7
2019-Oct-08 01:30N 53°30' E 005°25'5 9.0
2019-Oct-08 00:59N 53°29' E 005°17'4 9.3
2019-Oct-08 00:30N 53°28' E 005°10'5 9.8
2019-Oct-08 00:00N 53°26' E 005°03'510.3
2019-Oct-07 23:30N 53°22' E 004°56'1510.1
2019-Oct-07 22:00N 53°10' E 004°42'510.4
2019-Oct-07 21:30N 53°05' E 004°37'510.4
2019-Oct-07 21:00N 53°01' E 004°33'510.4
2019-Oct-07 20:30N 52°56' E 004°31'510.1
2019-Oct-07 20:00N 52°51' E 004°30'5 9.5
2019-Oct-07 19:30N 52°46' E 004°31'5 9.6
2019-Oct-07 19:00N 52°41' E 004°30'  
Track history (hours):
 
Tides and Currents Weather Stations Pressure Air Temp Water Temp Dewpoint Dewpoint Depression Visibility Wind Speed Wind Dir Waves Ship Positions

Oceanographic research ship Zirfaea (Netherlands)

Detailed information on ship capabilities available from University of Delaware's Ocean Information Center.

Last reported at 2019-Oct-17 18:59 UTC. Time now 2019-Oct-17 19:07 UTC.
Position N 52°06' E 004°16'.

Length 63 m; draft 3.9 m.

Type: Law enforcement. MMSI: 246096000.

Date/timePositionNaut miles runAvg speedWind from/ knotsBaromVisibWave heightAir tempDewpointWater temp
2019-Oct-17 18:59N 52°06' E 004°16'0 0.0
2019-Oct-17 18:29N 52°06' E 004°16'0 0.0
2019-Oct-17 17:59N 52°06' E 004°16'0 0.0
2019-Oct-17 17:29N 52°06' E 004°16'0 0.0
2019-Oct-17 16:59N 52°06' E 004°16'0 0.0
2019-Oct-17 16:29N 52°06' E 004°16'0 0.0
2019-Oct-17 15:59N 52°06' E 004°16'0 0.0
2019-Oct-17 15:29N 52°06' E 004°16'0 0.0
2019-Oct-17 14:59N 52°06' E 004°16'0 0.0
2019-Oct-17 14:29N 52°06' E 004°16'0 0.0
2019-Oct-17 13:59N 52°06' E 004°16'0 0.0
2019-Oct-17 13:29N 52°06' E 004°16'0 0.0
2019-Oct-17 12:59N 52°06' E 004°16'0 0.0
2019-Oct-17 12:29N 52°06' E 004°16'0 0.0
2019-Oct-17 11:59N 52°06' E 004°16'0 0.0
2019-Oct-17 11:29N 52°06' E 004°16'0 0.0
2019-Oct-17 10:59N 52°06' E 004°16'0 0.0
2019-Oct-17 10:29N 52°06' E 004°16'0 0.0
2019-Oct-17 09:59N 52°06' E 004°16'0 0.0
2019-Oct-17 09:29N 52°06' E 004°16'0 0.0
2019-Oct-17 08:59N 52°06' E 004°16'0 0.0
2019-Oct-17 08:29N 52°06' E 004°16'0 0.0
2019-Oct-17 07:59N 52°06' E 004°16'0 0.0
2019-Oct-17 07:29N 52°06' E 004°16'0 0.0
2019-Oct-17 06:59N 52°06' E 004°16'0 0.0
2019-Oct-17 06:29N 52°06' E 004°16'1 2.8
2019-Oct-17 06:00N 52°07' E 004°15'2 3.3
2019-Oct-17 05:30N 52°06' E 004°13'1 1.8
2019-Oct-17 05:00N 52°05' E 004°12'2 3.1
2019-Oct-17 04:30N 52°04' E 004°11'1 1.7
2019-Oct-17 04:00N 52°04' E 004°09'1 2.0
2019-Oct-17 03:30N 52°03' E 004°08'1 2.3
2019-Oct-17 03:00N 52°03' E 004°06'1 2.3
2019-Oct-17 02:30N 52°02' E 004°04'1 2.7
2019-Oct-17 02:00N 52°02' E 004°02'3 6.6
2019-Oct-17 01:30N 51°59' E 003°58'3 5.2
2019-Oct-17 01:00N 51°58' E 003°55'2 3.5
2019-Oct-17 00:30N 51°57' E 003°53'2 3.3
2019-Oct-17 00:00N 51°56' E 003°51'2 3.2
2019-Oct-16 23:30N 51°54' E 003°49'1 3.0
2019-Oct-16 23:00N 51°53' E 003°47'2 3.0
2019-Oct-16 22:30N 51°52' E 003°46'2 3.0
2019-Oct-16 22:00N 51°52' E 003°44'0 0.6
2019-Oct-16 21:30N 51°51' E 003°43'2 4.2
2019-Oct-16 21:00N 51°52' E 003°46'2 3.8
2019-Oct-16 20:30N 51°53' E 003°49'2 3.1
2019-Oct-16 20:00N 51°54' E 003°51'1 2.7
2019-Oct-16 19:30N 51°55' E 003°53'1 1.8
2019-Oct-16 19:00N 51°54' E 003°53'2 3.1
2019-Oct-16 18:30N 51°52' E 003°52'2 3.8
2019-Oct-16 18:00N 51°51' E 003°50'4 6.5
2019-Oct-16 17:28N 51°50' E 003°45'36 3.3
2019-Oct-16 06:23N 52°16' E 003°04'73 8.2
2019-Oct-15 21:26N 53°06' E 004°32'4 7.7
2019-Oct-15 20:57N 53°09' E 004°37'16 8.1
2019-Oct-15 18:59N 53°22' E 004°53'4 7.6
2019-Oct-15 18:30N 53°24' E 004°57'4 7.2
2019-Oct-15 18:00N 53°26' E 005°02'3 5.5
2019-Oct-15 17:30N 53°28' E 005°06'55 3.0
2019-Oct-14 22:57N 53°09' E 003°39'4 8.0
2019-Oct-14 22:27N 53°05' E 003°38'6 7.7
2019-Oct-14 21:44N 53°00' E 003°36'12 7.6
2019-Oct-14 20:12N 52°49' E 003°32'5 7.7
2019-Oct-14 19:33N 52°44' E 003°31'7 7.6
2019-Oct-14 18:39N 52°37' E 003°34'3 7.9
2019-Oct-14 18:14N 52°34' E 003°32'1 1.8
2019-Oct-14 17:57N 52°34' E 003°33'5 9.3
2019-Oct-14 17:26N 52°32' E 003°40'4 9.3
2019-Oct-14 16:59N 52°30' E 003°45'4 9.4
2019-Oct-14 16:30N 52°27' E 003°51'4 8.9
2019-Oct-14 16:01N 52°25' E 003°58'5 9.1
2019-Oct-14 15:30N 52°23' E 004°05'4 8.6
2019-Oct-14 15:00N 52°21' E 004°10'3 5.1
2019-Oct-14 14:30N 52°19' E 004°14'3 6.0
2019-Oct-14 14:00N 52°18' E 004°18'4 7.1
2019-Oct-14 13:30N 52°16' E 004°23'1 1.4
2019-Oct-14 13:01N 52°16' E 004°24'2 3.7
2019-Oct-14 12:30N 52°14' E 004°22'4 8.8
2019-Oct-14 12:01N 52°11' E 004°18'4 8.2
2019-Oct-14 11:31N 52°07' E 004°15'1 2.2
2019-Oct-14 10:59N 52°06' E 004°16'0 0.0
2019-Oct-14 10:29N 52°06' E 004°16'0 0.0
2019-Oct-14 09:59N 52°06' E 004°16'0 0.0
2019-Oct-14 09:29N 52°06' E 004°16'0 0.0
2019-Oct-14 08:59N 52°06' E 004°16'0 0.0
2019-Oct-14 08:23N 52°06' E 004°16'0 0.0
2019-Oct-14 07:59N 52°06' E 004°16'0 0.0
2019-Oct-14 07:29N 52°06' E 004°16'0 0.0
2019-Oct-14 06:59N 52°06' E 004°16'0 0.0
2019-Oct-14 06:29N 52°06' E 004°16'0 0.0
2019-Oct-14 05:59N 52°06' E 004°16'0 0.0
2019-Oct-14 05:29N 52°06' E 004°16'0 0.0
2019-Oct-14 04:59N 52°06' E 004°16'0 0.0
2019-Oct-14 04:29N 52°06' E 004°16'0 0.0
2019-Oct-14 03:59N 52°06' E 004°16'0 0.0
2019-Oct-14 03:29N 52°06' E 004°16'0 0.0
2019-Oct-14 02:59N 52°06' E 004°16'0 0.0
2019-Oct-14 02:29N 52°06' E 004°16'0 0.0
2019-Oct-14 01:59N 52°06' E 004°16'0 0.0
2019-Oct-14 01:29N 52°06' E 004°16'0 0.0
2019-Oct-14 00:53N 52°06' E 004°16'0 0.0
2019-Oct-14 00:29N 52°06' E 004°16'0 0.0
2019-Oct-13 23:59N 52°06' E 004°16'0 0.0
2019-Oct-13 23:29N 52°06' E 004°16'0 0.0
2019-Oct-13 22:56N 52°06' E 004°16'0 0.0
2019-Oct-13 22:23N 52°06' E 004°16'0 0.0
2019-Oct-13 21:59N 52°06' E 004°16'0 0.0
2019-Oct-13 21:29N 52°06' E 004°16'0 0.0
2019-Oct-13 20:59N 52°06' E 004°16'0 0.0
2019-Oct-13 20:26N 52°06' E 004°16'0 0.0
2019-Oct-13 19:59N 52°06' E 004°16'0 0.0
2019-Oct-13 19:29N 52°06' E 004°16'0 0.0
2019-Oct-13 18:59N 52°06' E 004°16'0 0.0
2019-Oct-13 18:26N 52°06' E 004°16'0 0.0
2019-Oct-13 17:59N 52°06' E 004°16'0 0.0
2019-Oct-13 17:29N 52°06' E 004°16'0 0.0
2019-Oct-13 16:59N 52°06' E 004°16'0 0.0
2019-Oct-13 16:29N 52°06' E 004°16'0 0.0
2019-Oct-13 15:59N 52°06' E 004°16'0 0.0
2019-Oct-13 15:29N 52°06' E 004°16'0 0.0
2019-Oct-13 14:56N 52°06' E 004°16'0 0.0
2019-Oct-13 14:29N 52°06' E 004°16'2 3.7
2019-Oct-13 14:01N 52°08' E 004°15'4 7.1
2019-Oct-13 13:30N 52°11' E 004°16'4 7.5
2019-Oct-13 13:00N 52°15' E 004°18'4 8.3
2019-Oct-13 12:30N 52°19' E 004°20'5 9.1
2019-Oct-13 12:00N 52°23' E 004°23'5 9.5
2019-Oct-13 11:30N 52°27' E 004°26'5 9.5
2019-Oct-13 11:01N 52°32' E 004°28'5 9.8
2019-Oct-13 10:30N 52°37' E 004°29'5 9.8
2019-Oct-13 10:00N 52°41' E 004°28'5 9.5
2019-Oct-13 09:31N 52°46' E 004°29'8 4.2
2019-Oct-13 07:40N 52°54' E 004°30'1 0.6
2019-Oct-13 05:50N 52°55' E 004°30'1 3.5
2019-Oct-13 05:27N 52°55' E 004°32'29 4.8
2019-Oct-12 23:20N 53°21' E 004°54'3 6.2
2019-Oct-12 22:52N 53°23' E 004°58'2 6.4
2019-Oct-12 22:30N 53°25' E 005°01'3 6.1
2019-Oct-12 22:00N 53°26' E 005°05'3 5.9
2019-Oct-12 21:30N 53°27' E 005°10'3 5.6
2019-Oct-12 21:00N 53°28' E 005°15'3 5.1
2019-Oct-12 20:31N 53°28' E 005°19'2 4.5
2019-Oct-12 20:00N 53°29' E 005°22'2 4.3
2019-Oct-12 19:29N 53°30' E 005°26'2 3.9
2019-Oct-12 19:00N 53°31' E 005°29'5 3.7
2019-Oct-12 17:33N 53°32' E 005°37'0 3.4
2019-Oct-12 17:30N 53°32' E 005°37'3 3.4
2019-Oct-12 16:32N 53°33' E 005°43'0 3.5
2019-Oct-12 16:30N 53°33' E 005°43'1 1.4
2019-Oct-12 15:50N 53°33' E 005°44'0 1.2
2019-Oct-12 15:30N 53°33' E 005°45'0 0.4
2019-Oct-12 14:58N 53°33' E 005°45'0 0.7
2019-Oct-12 14:29N 53°33' E 005°45'0 0.6
2019-Oct-12 14:00N 53°33' E 005°45'0 0.7
2019-Oct-12 13:31N 53°33' E 005°45'0 0.1
2019-Oct-12 13:00N 53°33' E 005°45'0 0.3
2019-Oct-12 12:30N 53°34' E 005°45'0 0.7
2019-Oct-12 12:00N 53°33' E 005°45'37 7.3
2019-Oct-12 06:58N 53°31' E 006°47'3 6.9
2019-Oct-12 06:30N 53°28' E 006°50'1 1.6
2019-Oct-12 05:37N 53°27' E 006°50'0 0.0
2019-Oct-12 05:13N 53°27' E 006°50'0 0.0
2019-Oct-12 04:55N 53°27' E 006°50'0 0.0
2019-Oct-12 04:13N 53°27' E 006°50'0 0.0
2019-Oct-12 03:55N 53°27' E 006°50'0 0.0
2019-Oct-12 03:22N 53°27' E 006°50'0 0.0
2019-Oct-12 02:55N 53°27' E 006°50'0 0.0
2019-Oct-12 01:19N 53°27' E 006°50'0 0.0
2019-Oct-12 00:55N 53°27' E 006°50'0 0.0
2019-Oct-12 00:28N 53°27' E 006°50'0 0.0
2019-Oct-11 23:46N 53°27' E 006°50'0 0.0
2019-Oct-11 23:04N 53°27' E 006°50'0 0.0
2019-Oct-11 20:34N 53°27' E 006°50'0 0.0
2019-Oct-11 19:28N 53°27' E 006°50'0 0.0
2019-Oct-11 18:46N 53°27' E 006°50'0 0.0
2019-Oct-11 18:16N 53°27' E 006°50'0 0.0
2019-Oct-11 17:22N 53°27' E 006°50'0 0.0
2019-Oct-11 16:55N 53°27' E 006°50'0 0.0
2019-Oct-11 16:04N 53°27' E 006°50'0 0.0
2019-Oct-11 13:10N 53°27' E 006°50'0 0.0
2019-Oct-11 12:52N 53°27' E 006°50'0 0.0
2019-Oct-11 11:52N 53°27' E 006°50'0 0.0
2019-Oct-11 11:16N 53°27' E 006°50'0 0.0
2019-Oct-11 04:58N 53°27' E 006°50'0 0.0
2019-Oct-11 03:22N 53°27' E 006°50'0 0.0
2019-Oct-11 02:07N 53°27' E 006°50'0 0.0
2019-Oct-11 01:52N 53°27' E 006°50'0 0.0
2019-Oct-11 00:55N 53°27' E 006°50'0 0.0
2019-Oct-11 00:22N 53°27' E 006°50'0 0.0
2019-Oct-10 23:31N 53°27' E 006°50'0 0.0
2019-Oct-10 23:16N 53°27' E 006°50'0 0.0
2019-Oct-10 22:52N 53°27' E 006°50'0 0.0
2019-Oct-10 16:13N 53°27' E 006°50'0 0.0
2019-Oct-10 13:43N 53°27' E 006°50'0 0.0
2019-Oct-10 13:13N 53°27' E 006°50'0 0.0
2019-Oct-10 11:55N 53°27' E 006°50'0 0.0
2019-Oct-10 11:19N 53°27' E 006°50'0 0.0
2019-Oct-10 06:16N 53°27' E 006°50'0 0.0
2019-Oct-10 05:58N 53°27' E 006°50'0 0.0
2019-Oct-10 05:28N 53°27' E 006°50'0 0.0
2019-Oct-10 04:58N 53°27' E 006°50'0 0.0
2019-Oct-10 04:10N 53°27' E 006°50'0 0.0
2019-Oct-10 03:55N 53°27' E 006°50'0 0.0
2019-Oct-10 03:28N 53°27' E 006°50'0 0.0
2019-Oct-10 02:37N 53°27' E 006°50'0 0.0
2019-Oct-10 01:52N 53°27' E 006°50'0 0.0
2019-Oct-10 01:28N 53°27' E 006°50'0 0.0
2019-Oct-10 00:46N 53°27' E 006°50'0 0.0
2019-Oct-09 23:58N 53°27' E 006°50'0 0.0
2019-Oct-09 23:04N 53°27' E 006°50'0 0.2
2019-Oct-09 22:52N 53°27' E 006°50'0 0.0
2019-Oct-09 22:28N 53°27' E 006°50'0 0.0
2019-Oct-09 21:52N 53°27' E 006°50'0 0.0
2019-Oct-09 21:28N 53°27' E 006°50'0 0.0
2019-Oct-09 19:43N 53°27' E 006°50'0 0.0
2019-Oct-09 18:49N 53°27' E 006°50'0 0.0
2019-Oct-09 18:30N 53°27' E 006°50'1 2.8
2019-Oct-09 18:00N 53°28' E 006°50'0 1.0
2019-Oct-09 17:30N 53°29' E 006°50'1 1.7
2019-Oct-09 17:00N 53°29' E 006°49'1 2.1
2019-Oct-09 16:30N 53°30' E 006°48'2 3.7
2019-Oct-09 15:59N 53°31' E 006°46'2 2.8
2019-Oct-09 15:25N 53°32' E 006°43'2 1.0
2019-Oct-09 13:29N 53°31' E 006°46'3 7.3
2019-Oct-09 13:00N 53°29' E 006°50'0 0.5
2019-Oct-09 12:30N 53°28' E 006°50'0 0.7
2019-Oct-09 11:55N 53°28' E 006°50'0 0.5
2019-Oct-09 11:29N 53°28' E 006°50'1 0.7
2019-Oct-09 10:27N 53°27' E 006°49'0 0.0
2019-Oct-09 09:03N 53°27' E 006°49'0 0.0
2019-Oct-09 06:36N 53°27' E 006°49'0 0.0
2019-Oct-09 06:24N 53°27' E 006°49'0 0.0
2019-Oct-09 05:45N 53°27' E 006°49'0 0.0
2019-Oct-09 05:30N 53°27' E 006°49'0 0.0
2019-Oct-09 04:48N 53°27' E 006°49'0 0.0
2019-Oct-09 04:15N 53°27' E 006°49'0 0.0
2019-Oct-09 03:51N 53°27' E 006°49'0 0.0
2019-Oct-09 03:30N 53°27' E 006°49'0 0.0
2019-Oct-09 02:57N 53°27' E 006°49'0 0.0
2019-Oct-09 02:12N 53°27' E 006°49'0 0.0
2019-Oct-09 01:42N 53°27' E 006°49'0 0.0
2019-Oct-09 01:21N 53°27' E 006°49'0 0.0
2019-Oct-09 00:51N 53°27' E 006°49'0 0.0
2019-Oct-09 00:18N 53°27' E 006°49'0 0.0
2019-Oct-08 23:57N 53°27' E 006°49'0 0.0
2019-Oct-08 23:06N 53°27' E 006°49'0 0.0
2019-Oct-08 22:57N 53°27' E 006°49'0 0.0
2019-Oct-08 22:30N 53°27' E 006°49'0 0.0
2019-Oct-08 21:45N 53°27' E 006°49'0 0.0
2019-Oct-08 21:30N 53°27' E 006°49'0 0.0
2019-Oct-08 21:00N 53°27' E 006°49'0 0.0
2019-Oct-08 20:18N 53°27' E 006°49'0 0.0
2019-Oct-08 19:54N 53°27' E 006°49'0 0.0
2019-Oct-08 19:06N 53°27' E 006°49'0 0.0
2019-Oct-08 18:48N 53°27' E 006°49'0 0.0
2019-Oct-08 18:24N 53°27' E 006°49'0 0.0
2019-Oct-08 18:00N 53°27' E 006°49'1 1.1
2019-Oct-08 17:31N 53°27' E 006°50'2 3.4
2019-Oct-08 17:00N 53°29' E 006°50'1 1.6
2019-Oct-08 16:30N 53°30' E 006°49'1 1.6
2019-Oct-08 15:58N 53°30' E 006°48'3 1.8
2019-Oct-08 14:24N 53°32' E 006°44'28 2.6
2019-Oct-08 03:50N 53°34' E 005°58'3 8.4
2019-Oct-08 03:30N 53°34' E 005°53'4 8.4
2019-Oct-08 03:00N 53°33' E 005°46'4 8.5
2019-Oct-08 02:29N 53°32' E 005°39'4 8.7
2019-Oct-08 02:00N 53°31' E 005°32'4 8.7
2019-Oct-08 01:30N 53°30' E 005°25'5 9.0
2019-Oct-08 00:59N 53°29' E 005°17'4 9.3
2019-Oct-08 00:30N 53°28' E 005°10'5 9.8
2019-Oct-08 00:00N 53°26' E 005°03'510.3
2019-Oct-07 23:30N 53°22' E 004°56'1510.1
2019-Oct-07 22:00N 53°10' E 004°42'510.4
2019-Oct-07 21:30N 53°05' E 004°37'510.4
2019-Oct-07 21:00N 53°01' E 004°33'510.4
2019-Oct-07 20:30N 52°56' E 004°31'510.1
2019-Oct-07 20:00N 52°51' E 004°30'5 9.5
2019-Oct-07 19:30N 52°46' E 004°31'5 9.6
2019-Oct-07 19:00N 52°41' E 004°30'  

Dump ship's entire track history